Time;durP1;ratioP1;P1;durP2;ratioP2;P2;SDS_P1;SDS_P2;PMS_P1;PMS_P2;Temp;Humidity;BMP_temperature;BMP_pressure;BME280_temperature;BME280_humidity;BME280_pressure;Samples;Min_cycle;Max_cycle;Signal;HPM_P1;HPM_P2
2023/04/16 00:02:34;;;;;;;;;;;;;;;3.75;39.93;102334.00;10506366;28;19970;-80
2023/04/16 00:07:36;;;;;;;;;;;;;;;3.73;40.13;102333.34;10498780;28;19920;-80
2023/04/16 00:12:38;;;;;;;;;;;;;;;3.69;39.81;102333.94;10535880;28;19975;-80
2023/04/16 00:17:40;;;;;;;;;;;;;;;3.62;40.26;102333.88;10503961;28;19966;-80
2023/04/16 00:22:42;;;;;;;;;;;;;;;3.56;40.10;102323.78;10551393;28;19920;-80
2023/04/16 00:27:44;;;;;;;;;;;;;;;3.52;40.79;102326.06;10531601;28;19920;-80
2023/04/16 00:32:46;;;;;;;;;;;;;;;3.47;40.49;102324.94;10566108;28;19920;-80
2023/04/16 00:37:48;;;;;;;;;;;;;;;3.43;40.48;102329.06;10570777;28;20368;-80
2023/04/16 00:42:50;;;;;;;;;;;;;;;3.41;41.14;102326.56;10499979;28;19920;-80
2023/04/16 00:47:54;;;;;;;;;;;;;;;3.42;40.95;102321.97;10517747;28;19924;-80
2023/04/16 00:52:56;;;;;;;;;;;;;;;3.42;40.78;102332.81;10531907;28;19921;-80
2023/04/16 00:57:57;;;;;;;;;;;;;;;3.38;41.02;102326.09;10531282;28;19939;-80
2023/04/16 01:02:59;;;;;;;;;;;;;;;3.37;40.30;102338.84;10517719;28;19920;-80
2023/04/16 01:08:01;;;;;;;;;;;;;;;3.35;41.19;102329.22;10527297;28;19924;-79
2023/04/16 01:13:03;;;;;;;;;;;;;;;3.30;41.01;102319.78;10481379;28;20336;-79
2023/04/16 01:18:15;;;;;;;;;;;;;;;3.30;41.22;102313.50;10530148;28;19954;-80
2023/04/16 01:23:17;;;;;;;;;;;;;;;3.28;41.35;102324.53;10523798;28;19950;-80
2023/04/16 01:28:19;;;;;;;;;;;;;;;3.24;41.28;102325.94;10519416;28;19920;-80
2023/04/16 01:33:26;;;;;;;;;;;;;;;3.22;41.40;102322.59;10491036;28;19924;-80
2023/04/16 01:38:31;;;;;;;;;;;;;;;3.19;41.73;102316.72;10490742;28;19920;-79
2023/04/16 01:43:34;;;;;;;;;;;;;;;3.11;41.33;102308.69;10462600;28;19927;-79
2023/04/16 01:48:35;;;;;;;;;;;;;;;3.09;41.29;102311.59;10442852;28;20437;-79
2023/04/16 01:53:37;;;;;;;;;;;;;;;3.03;41.79;102309.66;10489954;28;19927;-80
2023/04/16 01:58:41;;;;;;;;;;;;;;;2.97;41.69;102299.56;10452082;28;19921;-79
2023/04/16 02:03:43;;;;;;;;;;;;;;;2.93;41.51;102303.66;10460972;28;19920;-79
2023/04/16 02:08:45;;;;;;;;;;;;;;;2.90;42.19;102302.19;10473512;28;19924;-79
2023/04/16 02:13:52;;;;;;;;;;;;;;;2.88;41.64;102303.41;10454234;28;19920;-79
2023/04/16 02:18:54;;;;;;;;;;;;;;;2.89;42.13;102288.81;10439534;28;20392;-80
2023/04/16 02:23:59;;;;;;;;;;;;;;;2.85;42.11;102291.06;10434128;28;19939;-80
2023/04/16 02:29:05;;;;;;;;;;;;;;;2.84;42.30;102289.41;10460244;28;19921;-79
2023/04/16 02:34:14;;;;;;;;;;;;;;;2.81;42.33;102283.53;10447081;28;19956;-79
2023/04/16 02:39:17;;;;;;;;;;;;;;;2.81;42.11;102281.66;10483740;28;19920;-79
2023/04/16 02:44:19;;;;;;;;;;;;;;;2.79;42.43;102282.88;10506630;28;19935;-79
2023/04/16 02:49:22;;;;;;;;;;;;;;;2.76;42.48;102278.66;10483472;28;19931;-79
2023/04/16 02:54:24;;;;;;;;;;;;;;;2.76;42.39;102273.22;10544268;28;19927;-79
2023/04/16 02:59:27;;;;;;;;;;;;;;;2.73;42.69;102273.59;10488642;28;19928;-80
2023/04/16 03:04:29;;;;;;;;;;;;;;;2.71;42.33;102276.50;10480777;28;19927;-80
2023/04/16 03:09:31;;;;;;;;;;;;;;;2.73;42.75;102279.88;10525515;28;19920;-79
2023/04/16 03:14:33;;;;;;;;;;;;;;;2.71;42.50;102270.25;10507011;28;20015;-80
2023/04/16 03:19:36;;;;;;;;;;;;;;;2.67;42.53;102275.22;10518771;28;19928;-79
2023/04/16 03:24:38;;;;;;;;;;;;;;;2.70;42.97;102276.69;10513187;28;19924;-80
2023/04/16 03:29:42;;;;;;;;;;;;;;;2.70;42.91;102274.84;10487919;28;20464;-79
2023/04/16 03:34:44;;;;;;;;;;;;;;;2.71;42.74;102262.13;10484666;28;20029;-79
2023/04/16 03:39:46;;;;;;;;;;;;;;;2.71;42.91;102262.97;10482293;28;20312;-80
2023/04/16 03:44:49;;;;;;;;;;;;;;;2.67;43.19;102261.66;10488881;28;19920;-79
2023/04/16 03:49:52;;;;;;;;;;;;;;;2.64;42.95;102270.19;10500835;28;19924;-79
2023/04/16 03:54:54;;;;;;;;;;;;;;;2.63;43.31;102264.94;10508669;28;20399;-80
2023/04/16 04:00:01;;;;;;;;;;;;;;;2.64;43.60;102264.75;10472475;28;19927;-80
2023/04/16 04:05:16;;;;;;;;;;;;;;;2.64;43.30;102259.34;10532461;28;19916;-79
2023/04/16 04:10:19;;;;;;;;;;;;;;;2.56;43.53;102262.13;10492725;28;19920;-79
2023/04/16 04:15:21;;;;;;;;;;;;;;;2.59;43.84;102248.19;10504210;28;19916;-80
2023/04/16 04:20:23;;;;;;;;;;;;;;;2.66;43.41;102245.59;10496885;28;19951;-79
2023/04/16 04:25:27;;;;;;;;;;;;;;;2.66;43.43;102241.00;10511393;28;19923;-80
2023/04/16 04:30:29;;;;;;;;;;;;;;;2.69;43.27;102240.63;10549835;28;19920;-79
2023/04/16 04:35:31;;;;;;;;;;;;;;;2.71;43.32;102243.97;10509494;28;19920;-80
2023/04/16 04:40:35;;;;;;;;;;;;;;;2.71;43.60;102243.97;10512795;28;20296;-79
2023/04/16 04:45:39;;;;;;;;;;;;;;;2.80;43.01;102247.44;10515258;28;19920;-79
2023/04/16 04:50:41;;;;;;;;;;;;;;;2.89;43.07;102240.84;10536214;28;19934;-79
2023/04/16 04:55:43;;;;;;;;;;;;;;;2.96;43.28;102240.94;10557570;28;19924;-80
2023/04/16 05:00:45;;;;;;;;;;;;;;;3.02;43.31;102235.59;10500055;28;19920;-79
2023/04/16 05:05:47;;;;;;;;;;;;;;;3.11;42.85;102232.75;10515018;28;19920;-79
2023/04/16 05:10:49;;;;;;;;;;;;;;;3.29;42.80;102246.69;10548289;28;19920;-79
2023/04/16 05:15:51;;;;;;;;;;;;;;;3.45;42.48;102230.16;10519711;28;19925;-80
2023/04/16 05:20:53;;;;;;;;;;;;;;;3.61;42.10;102232.59;10521655;28;19947;-79
2023/04/16 05:25:55;;;;;;;;;;;;;;;3.85;42.11;102231.34;10513366;28;19920;-80
2023/04/16 05:30:57;;;;;;;;;;;;;;;4.09;41.62;102232.75;10548554;28;19924;-79
2023/04/16 05:36:02;;;;;;;;;;;;;;;4.40;41.43;102220.59;10519662;28;19963;-78
2023/04/16 05:41:04;;;;;;;;;;;;;;;4.69;40.55;102216.75;10531118;28;19920;-79
2023/04/16 05:46:06;;;;;;;;;;;;;;;5.22;40.36;102212.28;10530289;28;19931;-79
2023/04/16 05:51:07;;;;;;;;;;;;;;;5.07;40.19;102211.63;10533741;28;19926;-81
2023/04/16 05:56:09;;;;;;;;;;;;;;;4.95;40.02;102211.38;10541820;28;19957;-79
2023/04/16 06:01:11;;;;;;;;;;;;;;;5.25;39.50;102211.03;10545388;28;19920;-78
2023/04/16 06:06:14;;;;;;;;;;;;;;;6.33;38.61;102207.81;10544593;28;19924;-78
2023/04/16 06:11:16;;;;;;;;;;;;;;;7.40;36.73;102210.81;10530231;28;19921;-79
2023/04/16 06:16:18;;;;;;;;;;;;;;;7.81;36.10;102205.63;10571300;28;19916;-80
2023/04/16 06:21:20;;;;;;;;;;;;;;;8.23;35.21;102200.38;10557095;28;19927;-79
2023/04/16 06:26:22;;;;;;;;;;;;;;;8.29;34.40;102193.13;10531027;28;19950;-79
2023/04/16 06:31:24;;;;;;;;;;;;;;;8.98;33.43;102195.44;10560459;28;19924;-78
2023/04/16 06:36:26;;;;;;;;;;;;;;;8.61;33.30;102197.41;10511872;28;20445;-80
2023/04/16 06:41:29;;;;;;;;;;;;;;;8.43;33.67;102194.69;10528369;28;19920;-79
2023/04/16 06:46:32;;;;;;;;;;;;;;;8.11;33.25;102194.81;10493075;28;20014;-79
2023/04/16 06:51:34;;;;;;;;;;;;;;;8.10;33.70;102189.56;10519403;28;19947;-79
2023/04/16 06:56:36;;;;;;;;;;;;;;;7.98;33.52;102186.72;10529027;28;19920;-79
2023/04/16 07:01:40;;;;;;;;;;;;;;;8.01;33.87;102177.28;10533533;28;19920;-79
2023/04/16 07:06:44;;;;;;;;;;;;;;;8.39;33.29;102174.34;10529414;28;19942;-79
2023/04/16 07:11:54;;;;;;;;;;;;;;;8.87;32.08;102178.97;10527098;28;19927;-79
2023/04/16 07:16:56;;;;;;;;;;;;;;;9.06;31.87;102180.59;10523941;28;19920;-80
2023/04/16 07:21:58;;;;;;;;;;;;;;;8.75;32.19;102182.50;10535444;28;19927;-78
2023/04/16 07:27:00;;;;;;;;;;;;;;;9.60;31.71;102179.50;10526692;28;20384;-79
2023/04/16 07:32:03;;;;;;;;;;;;;;;9.84;30.95;102174.03;10499829;28;20416;-79
2023/04/16 07:37:08;;;;;;;;;;;;;;;9.84;31.50;102183.06;10526479;28;19965;-79
2023/04/16 07:42:10;;;;;;;;;;;;;;;10.08;32.04;102169.38;10508595;28;20334;-80
2023/04/16 07:47:12;;;;;;;;;;;;;;;11.09;31.16;102168.69;10526628;28;19921;-79
2023/04/16 07:52:15;;;;;;;;;;;;;;;12.43;28.67;102166.91;10525054;28;20386;-79
2023/04/16 07:57:17;;;;;;;;;;;;;;;13.01;27.72;102170.88;10526148;28;19920;-80
2023/04/16 08:02:19;;;;;;;;;;;;;;;13.10;27.17;102175.66;10526975;28;19927;-79
2023/04/16 08:07:21;;;;;;;;;;;;;;;13.66;26.75;102167.06;10569360;28;19920;-79
2023/04/16 08:12:23;;;;;;;;;;;;;;;13.27;26.33;102165.38;10549290;28;19920;-79
2023/04/16 08:17:25;;;;;;;;;;;;;;;12.96;26.69;102169.72;10563531;28;19920;-78
2023/04/16 08:22:27;;;;;;;;;;;;;;;12.14;27.17;102172.59;10544678;28;19919;-80
2023/04/16 08:27:30;;;;;;;;;;;;;;;12.64;27.16;102163.31;10558297;28;19919;-80
2023/04/16 08:32:32;;;;;;;;;;;;;;;12.03;27.99;102168.88;10529275;28;19921;-79
2023/04/16 08:37:34;;;;;;;;;;;;;;;11.88;28.19;102156.81;10543428;28;19924;-79
2023/04/16 08:42:44;;;;;;;;;;;;;;;11.56;27.89;102165.63;10512724;28;19920;-80
2023/04/16 08:47:49;;;;;;;;;;;;;;;11.55;27.67;102160.41;10515933;28;19931;-80
2023/04/16 08:52:58;;;;;;;;;;;;;;;11.03;28.75;102161.44;10534072;28;20284;-80
2023/04/16 08:58:00;;;;;;;;;;;;;;;10.95;29.11;102153.63;10556055;28;19920;-84
2023/04/16 09:03:02;;;;;;;;;;;;;;;10.85;28.75;102156.16;10519506;28;20371;-79
2023/04/16 09:08:05;;;;;;;;;;;;;;;11.15;28.87;102142.97;10523503;28;19920;-79
2023/04/16 09:13:08;;;;;;;;;;;;;;;11.02;29.33;102140.53;10554091;28;19920;-78
2023/04/16 09:18:11;;;;;;;;;;;;;;;11.07;28.59;102140.63;10522887;28;20316;-78
2023/04/16 09:23:13;;;;;;;;;;;;;;;11.51;28.67;102132.59;10540298;28;19920;-79
2023/04/16 09:28:35;;;;;;;;;;;;;;;11.20;29.26;102127.66;10517208;28;19920;-80
2023/04/16 09:33:37;;;;;;;;;;;;;;;10.98;26.87;102130.31;10536134;28;19920;-80
2023/04/16 09:38:46;;;;;;;;;;;;;;;10.72;27.01;102131.75;10526800;28;20372;-81
2023/04/16 09:43:59;;;;;;;;;;;;;;;10.99;26.22;102121.81;10522596;28;19927;-79
2023/04/16 09:49:08;;;;;;;;;;;;;;;11.03;25.40;102131.22;10517514;28;19920;-81
2023/04/16 09:54:12;;;;;;;;;;;;;;;10.89;25.35;102138.09;10501355;28;19920;-80
2023/04/16 09:59:17;;;;;;;;;;;;;;;10.78;25.17;102131.59;10495361;28;20292;-78
2023/04/16 10:04:21;;;;;;;;;;;;;;;10.87;25.28;102123.78;10475118;28;19920;-78
2023/04/16 10:09:24;;;;;;;;;;;;;;;10.79;25.17;102138.75;10474791;28;20519;-78
2023/04/16 10:14:28;;;;;;;;;;;;;;;10.74;24.84;102137.81;10517451;28;19916;-79
2023/04/16 10:19:30;;;;;;;;;;;;;;;10.60;24.38;102125.50;10533763;28;19951;-79
2023/04/16 10:24:33;;;;;;;;;;;;;;;10.65;24.84;102139.31;10475012;28;19920;-78
2023/04/16 10:29:35;;;;;;;;;;;;;;;10.78;24.71;102133.53;10493034;28;19924;-78
2023/04/16 10:34:37;;;;;;;;;;;;;;;10.71;26.53;102143.81;10475029;28;19929;-79
2023/04/16 10:39:39;;;;;;;;;;;;;;;10.50;26.29;102135.16;10473621;28;20035;-78
2023/04/16 10:44:41;;;;;;;;;;;;;;;10.33;27.02;102131.53;10492115;28;20010;-77
2023/04/16 10:49:44;;;;;;;;;;;;;;;10.44;27.15;102125.19;10502350;28;19921;-81
2023/04/16 10:54:49;;;;;;;;;;;;;;;10.51;26.73;102131.34;10514534;28;19916;-78
2023/04/16 10:59:53;;;;;;;;;;;;;;;10.57;26.69;102113.06;10530974;28;19921;-76
2023/04/16 11:04:55;;;;;;;;;;;;;;;10.53;25.88;102122.88;10509480;28;19925;-79
2023/04/16 11:10:07;;;;;;;;;;;;;;;10.61;26.47;102117.00;10499938;28;19989;-77
2023/04/16 11:15:12;;;;;;;;;;;;;;;10.67;26.92;102107.78;10514276;28;19921;-76
2023/04/16 11:20:15;;;;;;;;;;;;;;;10.85;26.89;102123.22;10526210;28;19927;-76
2023/04/16 11:25:29;;;;;;;;;;;;;;;10.88;26.73;102114.47;10569752;28;20280;-79
2023/04/16 11:30:35;;;;;;;;;;;;;;;10.83;26.93;102114.38;10554255;28;19919;-79
2023/04/16 11:35:42;;;;;;;;;;;;;;;10.76;26.69;102111.81;10570215;28;20308;-79
2023/04/16 11:40:46;;;;;;;;;;;;;;;10.73;27.12;102111.44;10516128;28;19920;-78
2023/04/16 11:45:55;;;;;;;;;;;;;;;10.61;27.35;102110.69;10548159;28;19920;-78
2023/04/16 11:50:57;;;;;;;;;;;;;;;10.62;26.60;102106.84;10578285;28;19920;-78
2023/04/16 11:56:00;;;;;;;;;;;;;;;10.49;27.06;102110.72;10560724;28;19927;-78
2023/04/16 12:01:02;;;;;;;;;;;;;;;10.52;26.99;102102.00;10540163;28;20407;-78
2023/04/16 12:06:08;;;;;;;;;;;;;;;10.54;26.87;102103.41;10507818;28;20199;-78
2023/04/16 12:11:11;;;;;;;;;;;;;;;10.47;27.68;102105.47;10497940;28;19928;-78
2023/04/16 12:16:18;;;;;;;;;;;;;;;10.49;27.39;102099.75;10522397;28;19999;-78
2023/04/16 12:21:20;;;;;;;;;;;;;;;10.45;27.08;102098.56;10498927;28;19920;-78
2023/04/16 12:26:23;;;;;;;;;;;;;;;10.57;27.54;102085.59;10509558;28;19924;-79
2023/04/16 12:31:37;;;;;;;;;;;;;;;10.65;26.96;102077.00;10546575;28;20750;-78
2023/04/16 12:36:42;;;;;;;;;;;;;;;10.76;26.05;102070.63;10547637;28;19920;-77
2023/04/16 12:41:44;;;;;;;;;;;;;;;11.06;27.10;102069.47;10526869;28;19920;-78
2023/04/16 12:46:46;;;;;;;;;;;;;;;11.26;26.33;102063.44;10569796;28;19924;-78
2023/04/16 12:51:48;;;;;;;;;;;;;;;11.25;26.23;102061.78;10532386;28;20301;-80
2023/04/16 12:56:51;;;;;;;;;;;;;;;11.43;26.03;102064.25;10545247;28;20006;-77
2023/04/16 13:01:53;;;;;;;;;;;;;;;11.48;25.72;102058.88;10533194;28;20019;-78
2023/04/16 13:06:55;;;;;;;;;;;;;;;11.33;25.75;102058.63;10523270;28;19983;-77
2023/04/16 13:11:57;;;;;;;;;;;;;;;11.40;26.50;102045.53;10583213;28;20403;-78
2023/04/16 13:16:59;;;;;;;;;;;;;;;11.44;26.73;102044.78;10555623;28;19995;-77
2023/04/16 13:22:01;;;;;;;;;;;;;;;11.37;25.29;102051.53;10539622;28;20470;-77
2023/04/16 13:27:03;;;;;;;;;;;;;;;11.41;26.47;102036.22;10478067;28;19920;-80
2023/04/16 13:32:05;;;;;;;;;;;;;;;11.48;25.22;102034.13;10537667;28;19927;-79
2023/04/16 13:37:07;;;;;;;;;;;;;;;11.46;25.67;102033.56;10539155;28;20023;-79
2023/04/16 13:42:09;;;;;;;;;;;;;;;11.35;25.17;102031.72;10543962;28;20368;-80
2023/04/16 13:47:10;;;;;;;;;;;;;;;11.28;25.57;102031.91;10543954;28;19920;-78
2023/04/16 13:52:12;;;;;;;;;;;;;;;11.31;26.11;102019.59;10577672;28;20014;-79
2023/04/16 13:57:14;;;;;;;;;;;;;;;11.25;25.63;102021.41;10533842;28;19928;-78
2023/04/16 14:02:16;;;;;;;;;;;;;;;11.21;26.59;102019.41;10539304;28;20018;-79
2023/04/16 14:07:21;;;;;;;;;;;;;;;11.22;26.19;102012.84;10552971;28;19920;-80
2023/04/16 14:12:23;;;;;;;;;;;;;;;11.12;25.54;102022.59;10516709;28;20403;-79
2023/04/16 14:17:25;;;;;;;;;;;;;;;11.13;26.40;102017.94;10526092;28;19927;-77
2023/04/16 14:22:27;;;;;;;;;;;;;;;10.98;26.94;102013.03;10542885;28;19920;-79
2023/04/16 14:27:29;;;;;;;;;;;;;;;10.82;26.67;102011.94;10516079;28;20375;-78
2023/04/16 14:32:31;;;;;;;;;;;;;;;10.79;26.56;102017.13;10531790;28;19925;-80
2023/04/16 14:37:35;;;;;;;;;;;;;;;10.76;27.62;102012.97;10567479;28;19919;-78
2023/04/16 14:42:37;;;;;;;;;;;;;;;10.80;27.44;102008.63;10528389;28;19924;-78
2023/04/16 14:47:44;;;;;;;;;;;;;;;10.90;27.50;102005.19;10518250;28;19916;-78
2023/04/16 14:52:46;;;;;;;;;;;;;;;10.88;27.31;102015.59;10549947;28;19930;-78
2023/04/16 14:57:48;;;;;;;;;;;;;;;10.80;26.76;102018.78;10519175;28;20015;-78
2023/04/16 15:02:55;;;;;;;;;;;;;;;10.73;26.74;102016.19;10534673;28;19920;-81
2023/04/16 15:07:57;;;;;;;;;;;;;;;10.73;26.83;102012.59;10499524;28;20307;-78
2023/04/16 15:12:59;;;;;;;;;;;;;;;10.76;27.12;102012.97;10537787;28;19934;-76
2023/04/16 15:18:01;;;;;;;;;;;;;;;10.88;27.04;102015.59;10524517;28;19920;-79
2023/04/16 15:23:02;;;;;;;;;;;;;;;10.74;27.02;102014.25;10534937;28;19997;-78
2023/04/16 15:28:05;;;;;;;;;;;;;;;10.81;26.78;102018.53;10540584;28;20370;-79
2023/04/16 15:33:07;;;;;;;;;;;;;;;10.74;27.12;102025.25;10488143;28;19925;-78
2023/04/16 15:38:10;;;;;;;;;;;;;;;10.80;26.50;102024.28;10536222;28;19960;-77
2023/04/16 15:43:12;;;;;;;;;;;;;;;10.75;26.21;102027.75;10536426;28;19920;-77
2023/04/16 15:48:14;;;;;;;;;;;;;;;10.62;26.08;102027.25;10497834;28;19920;-76
2023/04/16 15:53:16;;;;;;;;;;;;;;;10.49;26.84;102015.50;10504332;28;20121;-78
2023/04/16 15:58:19;;;;;;;;;;;;;;;10.46;26.66;102016.00;10535857;28;19939;-79
2023/04/16 16:03:22;;;;;;;;;;;;;;;10.48;26.02;102027.56;10468448;28;20035;-77
2023/04/16 16:08:24;;;;;;;;;;;;;;;10.41;26.13;102029.63;10509621;28;20481;-78
2023/04/16 16:13:26;;;;;;;;;;;;;;;10.35;26.88;102021.53;10563245;28;20030;-79
2023/04/16 16:18:28;;;;;;;;;;;;;;;10.32;26.91;102019.28;10549626;28;19920;-77
2023/04/16 16:23:33;;;;;;;;;;;;;;;10.24;26.86;102021.34;10541511;28;19927;-77
2023/04/16 16:28:37;;;;;;;;;;;;;;;10.18;26.78;102026.94;10551822;28;20452;-78
2023/04/16 16:33:39;;;;;;;;;;;;;;;10.08;27.44;102021.28;10543193;28;19921;-77
2023/04/16 16:38:41;;;;;;;;;;;;;;;10.04;26.95;102031.03;10549096;28;20342;-81
2023/04/16 16:43:43;;;;;;;;;;;;;;;10.03;27.33;102027.47;10506917;28;19920;-78
2023/04/16 16:48:45;;;;;;;;;;;;;;;9.75;31.77;102035.66;10498880;28;19968;-79
2023/04/16 16:53:47;;;;;;;;;;;;;;;9.45;33.13;102027.59;10497068;28;19928;-83
2023/04/16 16:58:49;;;;;;;;;;;;;;;9.23;34.05;102041.91;10494022;28;19920;-79
2023/04/16 17:03:51;;;;;;;;;;;;;;;9.14;34.00;102034.28;10479132;28;19916;-84
2023/04/16 17:08:53;;;;;;;;;;;;;;;8.96;34.59;102037.94;10496738;28;19959;-82
2023/04/16 17:13:55;;;;;;;;;;;;;;;8.82;34.95;102039.22;10478991;28;19942;-81
2023/04/16 17:18:58;;;;;;;;;;;;;;;8.75;34.93;102029.22;10486427;28;19926;-81
2023/04/16 17:24:00;;;;;;;;;;;;;;;8.70;35.09;102037.31;10511785;28;19924;-81
2023/04/16 17:29:03;;;;;;;;;;;;;;;8.67;34.51;102036.94;10473030;28;19942;-80
2023/04/16 17:34:05;;;;;;;;;;;;;;;8.58;35.75;102038.34;10526694;28;20380;-81
2023/04/16 17:39:07;;;;;;;;;;;;;;;8.50;35.39;102034.03;10518613;28;19966;-81
2023/04/16 17:44:09;;;;;;;;;;;;;;;8.40;35.53;102036.50;10518612;28;20310;-83
2023/04/16 17:49:11;;;;;;;;;;;;;;;8.32;35.30;102036.78;10505229;28;19920;-82
2023/04/16 17:54:13;;;;;;;;;;;;;;;8.29;35.08;102040.00;10518666;28;19926;-81
2023/04/16 17:59:16;;;;;;;;;;;;;;;8.22;34.47;102044.72;10539518;28;20018;-87
2023/04/16 18:04:18;;;;;;;;;;;;;;;8.15;34.69;102037.44;10531215;28;19928;-83
2023/04/16 18:09:20;;;;;;;;;;;;;;;8.04;34.52;102043.69;10550287;28;19920;-83
2023/04/16 18:14:22;;;;;;;;;;;;;;;8.06;34.23;102035.25;10501651;28;19966;-83
2023/04/16 18:19:24;;;;;;;;;;;;;;;8.05;34.66;102036.31;10484353;28;20094;-84
2023/04/16 18:24:26;;;;;;;;;;;;;;;8.03;34.23;102036.56;10515997;28;19947;-84
2023/04/16 18:29:28;;;;;;;;;;;;;;;8.00;35.20;102038.94;10497172;28;20206;-83
2023/04/16 18:34:30;;;;;;;;;;;;;;;7.95;34.71;102045.06;10516017;28;20022;-83
2023/04/16 18:39:32;;;;;;;;;;;;;;;7.75;34.95;102045.28;10497980;28;19921;-84
2023/04/16 18:44:34;;;;;;;;;;;;;;;7.59;34.61;102045.06;10473111;28;19942;-82
2023/04/16 18:49:36;;;;;;;;;;;;;;;7.46;35.14;102043.31;10461629;28;20011;-83
2023/04/16 18:54:39;;;;;;;;;;;;;;;7.40;35.05;102042.31;10498474;28;19943;-82
2023/04/16 18:59:46;;;;;;;;;;;;;;;7.54;35.50;102040.28;10475065;28;20461;-82
2023/04/16 19:04:48;;;;;;;;;;;;;;;7.51;35.70;102038.84;10461548;28;19917;-82
2023/04/16 19:09:53;;;;;;;;;;;;;;;7.38;35.40;102043.63;10450720;28;19921;-81
2023/04/16 19:15:21;;;;;;;;;;;;;;;7.34;36.32;102042.41;10462384;28;20330;-88
2023/04/16 19:20:23;;;;;;;;;;;;;;;7.39;36.17;102046.13;10465566;28;20495;-86
2023/04/16 19:25:25;;;;;;;;;;;;;;;7.32;36.05;102044.53;10429751;28;20011;-81
2023/04/16 19:30:27;;;;;;;;;;;;;;;7.41;36.33;102043.16;10446904;28;20093;-83
2023/04/16 19:35:33;;;;;;;;;;;;;;;7.34;35.94;102048.69;10460053;28;19916;-85
2023/04/16 19:40:37;;;;;;;;;;;;;;;7.32;35.77;102048.09;10451902;28;20293;-85
2023/04/16 19:45:51;;;;;;;;;;;;;;;7.21;36.31;102038.72;10478663;28;19916;-83
2023/04/16 19:50:53;;;;;;;;;;;;;;;7.19;36.52;102040.03;10479898;28;20284;-83
2023/04/16 19:55:55;;;;;;;;;;;;;;;7.32;37.00;102044.53;10472120;28;19920;-83
2023/04/16 20:00:57;;;;;;;;;;;;;;;7.24;36.29;102043.72;10510127;28;19919;-86
2023/04/16 20:06:00;;;;;;;;;;;;;;;7.18;36.36;102038.34;10543977;28;20482;-84
2023/04/16 20:11:02;;;;;;;;;;;;;;;7.07;36.54;102047.25;10489653;28;20346;-82
2023/04/16 20:16:30;;;;;;;;;;;;;;;7.00;36.75;102043.75;10488651;28;19939;-82
2023/04/16 20:21:32;;;;;;;;;;;;;;;6.82;36.88;102047.28;10538330;28;19916;-82
2023/04/16 20:26:35;;;;;;;;;;;;;;;6.74;37.22;102047.53;10478923;28;19920;-86
2023/04/16 20:31:37;;;;;;;;;;;;;;;6.62;37.55;102045.53;10489688;28;19920;-84
2023/04/16 20:36:40;;;;;;;;;;;;;;;6.64;37.42;102048.03;10485427;28;19928;-86
2023/04/16 20:41:55;;;;;;;;;;;;;;;6.62;37.66;102044.69;10488643;28;19927;-88
2023/04/16 20:46:58;;;;;;;;;;;;;;;6.58;37.61;102044.28;10476807;28;19931;-82
2023/04/16 20:52:01;;;;;;;;;;;;;;;6.61;38.12;102041.13;10490463;28;20485;-86
2023/04/16 20:57:03;;;;;;;;;;;;;;;6.58;38.06;102027.91;10524709;28;19919;-84
2023/04/16 21:02:07;;;;;;;;;;;;;;;6.53;38.83;102026.91;10523191;28;20355;-83
2023/04/16 21:07:09;;;;;;;;;;;;;;;6.58;38.31;102033.38;10517646;28;19942;-84
2023/04/16 21:12:11;;;;;;;;;;;;;;;6.68;38.69;102037.50;10522851;28;19921;-87
2023/04/16 21:17:13;;;;;;;;;;;;;;;6.69;38.76;102034.56;10561331;28;19916;-86
2023/04/16 21:22:15;;;;;;;;;;;;;;;6.76;39.58;102027.16;10579244;28;20367;-84
2023/04/16 21:27:18;;;;;;;;;;;;;;;6.67;39.35;102028.50;10550517;28;20027;-81
2023/04/16 21:32:20;;;;;;;;;;;;;;;6.64;39.19;102031.66;10520703;28;20191;-85
2023/04/16 21:37:22;;;;;;;;;;;;;;;6.54;39.71;102034.03;10524019;28;20579;-88
2023/04/16 21:42:24;;;;;;;;;;;;;;;6.42;39.90;102030.31;10545519;28;20355;-89
2023/04/16 21:47:26;;;;;;;;;;;;;;;6.22;40.30;102034.00;10498203;28;19962;-90
2023/04/16 21:52:27;;;;;;;;;;;;;;;6.26;40.29;102035.28;10532456;28;20387;-87
2023/04/16 21:57:29;;;;;;;;;;;;;;;6.26;40.50;102028.97;10492572;28;19916;-88
2023/04/16 22:02:32;;;;;;;;;;;;;;;6.10;40.83;102037.66;10495097;28;19916;-88
2023/04/16 22:07:35;;;;;;;;;;;;;;;6.16;41.47;102036.78;10513527;28;19916;-89
2023/04/16 22:12:39;;;;;;;;;;;;;;;6.00;41.35;102040.84;10497501;28;20375;-87
2023/04/16 22:17:44;;;;;;;;;;;;;;;5.80;41.63;102035.44;10509246;28;19921;-88
2023/04/16 22:22:46;;;;;;;;;;;;;;;5.78;42.27;102037.56;10497008;28;19920;-88
2023/04/16 22:27:48;;;;;;;;;;;;;;;5.75;42.62;102038.81;10513277;28;19955;-90
2023/04/16 22:32:50;;;;;;;;;;;;;;;5.78;41.57;102025.81;10502414;28;19927;-87
2023/04/16 22:37:52;;;;;;;;;;;;;;;5.63;42.00;102034.25;10491314;28;19923;-87
2023/04/16 22:43:01;;;;;;;;;;;;;;;5.54;42.13;102036.34;10530578;28;19926;-89
2023/04/16 22:48:03;;;;;;;;;;;;;;;5.61;42.05;102042.63;10495917;28;20276;-90
2023/04/16 22:53:05;;;;;;;;;;;;;;;5.57;42.67;102030.50;10478710;28;19924;-87
2023/04/16 22:58:07;;;;;;;;;;;;;;;5.78;42.86;102044.88;10512951;28;19916;-88
2023/04/16 23:03:09;;;;;;;;;;;;;;;5.75;42.38;102038.81;10511483;28;19916;-88
2023/04/16 23:08:10;;;;;;;;;;;;;;;5.82;42.70;102040.69;10495308;28;20372;-88
2023/04/16 23:13:12;;;;;;;;;;;;;;;5.84;42.14;102031.22;10510924;28;19927;-89
2023/04/16 23:18:15;;;;;;;;;;;;;;;5.83;42.05;102035.00;10470518;28;19920;-89
2023/04/16 23:23:16;;;;;;;;;;;;;;;5.70;42.35;102035.88;10503566;28;19920;-87
2023/04/16 23:28:19;;;;;;;;;;;;;;;5.58;42.47;102029.44;10489513;28;20315;-88
2023/04/16 23:33:20;;;;;;;;;;;;;;;5.41;42.86;102030.97;10473951;28;19928;-88
2023/04/16 23:38:22;;;;;;;;;;;;;;;5.33;42.97;102028.44;10509573;28;19916;-88
2023/04/16 23:43:24;;;;;;;;;;;;;;;5.35;42.48;102023.63;10501629;28;19943;-89
2023/04/16 23:48:27;;;;;;;;;;;;;;;5.33;42.99;102023.84;10515891;28;20022;-87
2023/04/16 23:53:28;;;;;;;;;;;;;;;5.28;43.83;102025.53;10518706;28;19931;-87
2023/04/16 23:58:30;;;;;;;;;;;;;;;5.04;44.15;102029.78;10514634;28;20019;-89
